createdAt,value
2019-03-23T00:00:42.721Z,99.99
2019-03-23T00:01:42.700Z,99.99
2019-03-23T00:02:42.682Z,99.99
2019-03-23T00:03:42.659Z,99.99
2019-03-23T00:04:42.635Z,99.99
2019-03-23T00:05:42.610Z,99.99
2019-03-23T00:06:42.588Z,99.99
2019-03-23T00:07:42.569Z,99.99
2019-03-23T00:08:42.551Z,99.99
2019-03-23T00:09:42.525Z,99.99
2019-03-23T00:10:42.502Z,99.99
2019-03-23T00:11:42.491Z,99.99
2019-03-23T00:12:42.457Z,99.99
2019-03-23T00:13:42.441Z,99.99
2019-03-23T00:14:42.418Z,99.99
2019-03-23T00:15:42.395Z,99.99
2019-03-23T00:16:42.376Z,99.99
2019-03-23T00:17:42.352Z,99.99
2019-03-23T00:18:42.324Z,99.99
2019-03-23T00:19:42.309Z,99.99
2019-03-23T00:20:42.283Z,99.99
2019-03-23T00:21:42.261Z,99.99
2019-03-23T00:22:42.240Z,99.99
2019-03-23T00:23:42.221Z,99.99
2019-03-23T00:24:42.195Z,99.99
2019-03-23T00:25:42.168Z,99.99
2019-03-23T00:26:42.148Z,99.99
2019-03-23T00:27:42.135Z,99.99
2019-03-23T00:28:42.108Z,99.99
2019-03-23T00:29:42.082Z,99.99
2019-03-23T00:30:42.063Z,99.99
2019-03-23T00:31:42.039Z,99.99
2019-03-23T00:32:42.016Z,99.99
2019-03-23T00:33:41.992Z,99.99
2019-03-23T00:34:41.975Z,99.99
2019-03-23T00:35:41.948Z,99.99
2019-03-23T00:36:42.059Z,99.99
2019-03-23T00:37:41.904Z,99.99
2019-03-23T00:38:41.889Z,99.99
2019-03-23T00:39:41.860Z,99.99
2019-03-23T00:40:41.843Z,99.99
2019-03-23T00:41:41.826Z,99.99
2019-03-23T00:42:41.793Z,99.99
2019-03-23T00:43:41.779Z,99.99
2019-03-23T00:44:41.755Z,99.99
2019-03-23T00:45:41.730Z,99.99
2019-03-23T00:46:41.702Z,99.99
2019-03-23T00:47:41.682Z,99.99
2019-03-23T00:48:41.661Z,99.99
2019-03-23T00:49:41.641Z,99.99
2019-03-23T00:50:41.621Z,99.99
2019-03-23T00:51:41.603Z,99.99
2019-03-23T00:52:41.576Z,99.99
2019-03-23T00:53:41.550Z,99.99
2019-03-23T00:54:41.531Z,99.99
2019-03-23T00:55:41.518Z,99.99
2019-03-23T00:56:41.489Z,99.99
2019-03-23T00:57:41.463Z,99.99
2019-03-23T00:58:41.444Z,99.99
2019-03-23T00:59:41.418Z,99.99
2019-03-23T01:00:41.401Z,99.99
2019-03-23T01:01:41.384Z,99.99
2019-03-23T01:02:42.064Z,99.99
2019-03-23T01:03:41.329Z,99.99
2019-03-23T01:04:41.315Z,99.99
2019-03-23T01:05:41.291Z,99.99
2019-03-23T01:06:51.595Z,99.99
2019-03-23T01:07:41.279Z,99.99
2019-03-23T01:08:41.219Z,99.99
2019-03-23T01:09:41.197Z,99.99
2019-03-23T01:10:41.182Z,99.99
2019-03-23T01:11:41.159Z,99.99
2019-03-23T01:12:41.133Z,99.99
2019-03-23T01:13:41.117Z,99.99
2019-03-23T01:14:41.095Z,99.99
2019-03-23T01:15:41.068Z,99.99
2019-03-23T01:16:41.045Z,99.99
2019-03-23T01:17:41.025Z,99.99
2019-03-23T01:18:40.999Z,99.99
2019-03-23T01:19:40.983Z,99.99
2019-03-23T01:20:49.259Z,99.99
2019-03-23T01:21:40.936Z,99.99
2019-03-23T01:22:40.963Z,99.99
2019-03-23T01:23:40.895Z,99.99
2019-03-23T01:24:40.873Z,99.99
2019-03-23T01:25:40.852Z,99.99
2019-03-23T01:26:40.827Z,99.99
2019-03-23T01:27:40.799Z,99.99
2019-03-23T01:28:40.785Z,99.99
2019-03-23T01:29:40.759Z,99.99
2019-03-23T01:30:40.737Z,99.99
2019-03-23T01:31:40.716Z,99.99
2019-03-23T01:32:40.691Z,99.99
2019-03-23T01:33:40.679Z,99.99
2019-03-23T01:34:40.647Z,99.99
2019-03-23T01:35:40.627Z,99.99
2019-03-23T01:36:40.605Z,99.99
2019-03-23T01:37:40.587Z,99.99
2019-03-23T01:38:40.562Z,99.99
2019-03-23T01:39:40.540Z,99.99
2019-03-23T01:40:40.522Z,99.99
2019-03-23T01:41:40.499Z,99.99
2019-03-23T01:42:40.475Z,99.99
2019-03-23T01:43:40.453Z,99.99
2019-03-23T01:44:40.429Z,99.99
2019-03-23T01:45:40.411Z,99.99
2019-03-23T01:46:40.390Z,99.99
2019-03-23T01:47:40.362Z,99.99
2019-03-23T01:48:40.345Z,99.99
2019-03-23T01:49:40.323Z,99.99
2019-03-23T01:50:40.301Z,99.99
2019-03-23T01:51:40.281Z,99.99
2019-03-23T01:52:40.257Z,99.99
2019-03-23T01:53:40.233Z,99.99
2019-03-23T01:54:40.209Z,99.99
2019-03-23T01:55:40.193Z,99.99
2019-03-23T01:56:40.167Z,99.99
2019-03-23T01:57:40.146Z,99.99
2019-03-23T01:58:40.122Z,99.99
2019-03-23T01:59:40.107Z,99.99
2019-03-23T02:00:40.099Z,99.99
2019-03-23T02:01:40.056Z,99.99
2019-03-23T02:02:40.032Z,99.99
2019-03-23T02:03:40.013Z,99.99
2019-03-23T02:04:39.988Z,99.99
2019-03-23T02:05:39.969Z,99.99
2019-03-23T02:06:39.948Z,99.99
2019-03-23T02:07:39.988Z,99.99
2019-03-23T02:08:39.903Z,99.99
2019-03-23T02:09:39.884Z,99.99
2019-03-23T02:10:41.846Z,99.99
2019-03-23T02:11:39.836Z,99.99
2019-03-23T02:12:39.816Z,99.99
2019-03-23T02:13:39.794Z,99.99
2019-03-23T02:14:39.770Z,99.99
2019-03-23T02:15:39.749Z,99.99
2019-03-23T02:16:39.729Z,99.99
2019-03-23T02:17:39.706Z,99.99
2019-03-23T02:18:39.680Z,99.99
2019-03-23T02:19:39.659Z,99.99
2019-03-23T02:20:39.634Z,99.99
2019-03-23T02:21:39.613Z,99.99
2019-03-23T02:22:39.590Z,99.99
2019-03-23T02:23:39.573Z,99.99
2019-03-23T02:24:39.548Z,99.99
2019-03-23T02:25:39.530Z,99.99
2019-03-23T02:26:39.506Z,99.99
2019-03-23T02:27:39.485Z,99.99
2019-03-23T02:28:39.459Z,99.99
2019-03-23T02:29:39.436Z,99.99
2019-03-23T02:30:39.417Z,99.99
2019-03-23T02:31:39.397Z,99.99
2019-03-23T02:32:39.377Z,99.99
2019-03-23T02:33:39.358Z,99.99
2019-03-23T02:34:39.330Z,99.99
2019-03-23T02:35:39.309Z,99.99
2019-03-23T02:36:39.289Z,99.99
2019-03-23T02:37:39.263Z,99.99
2019-03-23T02:38:39.241Z,99.99
2019-03-23T02:39:39.218Z,99.99
2019-03-23T02:40:39.203Z,99.99
2019-03-23T02:41:39.179Z,99.99
2019-03-23T02:42:39.155Z,99.99
2019-03-23T02:43:39.129Z,99.99
2019-03-23T02:44:39.111Z,99.99
2019-03-23T02:45:39.089Z,99.99
2019-03-23T02:46:39.063Z,99.99
2019-03-23T02:47:39.042Z,99.99
2019-03-23T02:48:39.025Z,99.99
2019-03-23T02:49:39.003Z,99.99
2019-03-23T02:50:38.972Z,99.99
2019-03-23T02:51:39.813Z,99.99
2019-03-23T02:52:38.936Z,99.99
2019-03-23T02:53:38.916Z,99.99
2019-03-23T02:54:38.890Z,99.99
2019-03-23T02:55:38.862Z,99.99
2019-03-23T02:56:38.841Z,99.99
2019-03-23T02:57:38.821Z,99.99
2019-03-23T02:58:38.804Z,99.99
2019-03-23T02:59:38.774Z,99.99
2019-03-23T03:00:38.761Z,99.99
2019-03-23T03:01:38.735Z,99.99
2019-03-23T03:02:38.712Z,99.99
2019-03-23T03:03:38.699Z,99.99
2019-03-23T03:04:38.663Z,99.99
2019-03-23T03:05:38.651Z,99.99
2019-03-23T03:06:38.620Z,99.99
2019-03-23T03:07:42.673Z,99.99
2019-03-23T03:08:38.580Z,99.99
2019-03-23T03:09:38.553Z,99.99
2019-03-23T03:10:38.546Z,99.99
2019-03-23T03:11:38.534Z,99.99
2019-03-23T03:12:38.497Z,99.99
2019-03-23T03:13:38.468Z,99.99
2019-03-23T03:14:38.449Z,99.99
2019-03-23T03:15:38.427Z,99.99
2019-03-23T03:16:38.400Z,99.99
2019-03-23T03:17:38.376Z,99.99
2019-03-23T03:18:38.358Z,99.99
2019-03-23T03:19:38.351Z,99.99
2019-03-23T03:20:38.323Z,99.99
2019-03-23T03:21:38.293Z,99.99
2019-03-23T03:22:38.266Z,99.99
2019-03-23T03:23:38.243Z,99.99
2019-03-23T03:24:38.223Z,99.99
2019-03-23T03:25:38.203Z,99.99
2019-03-23T03:26:38.175Z,99.99
2019-03-23T03:27:38.175Z,99.99
2019-03-23T03:28:38.135Z,99.99
2019-03-23T03:29:38.108Z,99.99
2019-03-23T03:30:38.211Z,99.99
2019-03-23T03:31:38.070Z,99.99
2019-03-23T03:32:38.067Z,99.99
2019-03-23T03:33:38.024Z,99.99
2019-03-23T03:34:38.005Z,99.99
2019-03-23T03:35:37.978Z,99.99
2019-03-23T03:36:37.961Z,99.99
2019-03-23T03:37:37.940Z,99.99
2019-03-23T03:38:37.917Z,99.99
2019-03-23T03:39:37.896Z,99.99
2019-03-23T03:40:37.870Z,99.99
2019-03-23T03:41:37.845Z,99.99
2019-03-23T03:42:37.846Z,99.99
2019-03-23T03:43:37.805Z,99.99
2019-03-23T03:44:37.784Z,99.99
2019-03-23T03:45:37.767Z,99.99
2019-03-23T03:46:37.738Z,99.99
2019-03-23T03:47:41.034Z,99.99
2019-03-23T03:48:37.694Z,99.99
2019-03-23T03:49:37.678Z,99.99
2019-03-23T03:50:37.648Z,99.99
2019-03-23T03:51:37.624Z,99.99
2019-03-23T03:52:37.604Z,99.99
2019-03-23T03:53:37.590Z,99.99
2019-03-23T03:54:37.561Z,99.99
2019-03-23T03:55:37.540Z,99.99
2019-03-23T03:56:37.524Z,99.99
2019-03-23T03:57:37.507Z,99.99
2019-03-23T03:58:37.476Z,99.99
2019-03-23T03:59:37.448Z,99.99
2019-03-23T04:00:37.430Z,99.99
2019-03-23T04:01:37.411Z,99.99
2019-03-23T04:02:37.388Z,99.99
2019-03-23T04:03:37.367Z,99.99
2019-03-23T04:04:37.345Z,99.99
2019-03-23T04:05:37.323Z,99.99
2019-03-23T04:06:37.302Z,99.99
2019-03-23T04:07:37.278Z,99.99
2019-03-23T04:08:37.256Z,99.99
2019-03-23T04:09:40.268Z,99.99
2019-03-23T04:10:37.207Z,99.99
2019-03-23T04:11:37.186Z,99.99
2019-03-23T04:12:37.167Z,99.99
2019-03-23T04:13:37.144Z,99.99
2019-03-23T04:14:37.131Z,99.99
2019-03-23T04:15:37.118Z,99.99
2019-03-23T04:16:37.084Z,99.99
2019-03-23T04:17:37.058Z,99.99
2019-03-23T04:18:37.036Z,99.99
2019-03-23T04:19:37.015Z,99.99
2019-03-23T04:20:36.990Z,99.99
2019-03-23T04:21:36.974Z,99.99
2019-03-23T04:22:36.950Z,99.99
2019-03-23T04:23:36.925Z,99.99
2019-03-23T04:24:36.906Z,99.99
2019-03-23T04:25:36.882Z,99.99
2019-03-23T04:26:39.181Z,99.99
2019-03-23T04:27:36.840Z,99.99
2019-03-23T04:28:36.817Z,99.99
2019-03-23T04:29:36.796Z,99.99
2019-03-23T04:30:36.773Z,99.99
2019-03-23T04:31:36.757Z,99.99
2019-03-23T04:32:36.738Z,99.99
2019-03-23T04:33:36.710Z,99.99
2019-03-23T04:34:36.677Z,99.99
2019-03-23T04:35:36.664Z,99.99
2019-03-23T04:36:36.652Z,99.99
2019-03-23T04:37:36.623Z,99.99
2019-03-23T04:38:36.603Z,99.99
2019-03-23T04:39:36.579Z,99.99
2019-03-23T04:40:36.559Z,99.99
2019-03-23T04:41:36.539Z,99.99
2019-03-23T04:42:36.515Z,99.99
2019-03-23T04:43:36.488Z,99.99
2019-03-23T04:44:36.470Z,99.99
2019-03-23T04:45:36.446Z,99.99
2019-03-23T04:46:36.421Z,99.99
2019-03-23T04:47:36.400Z,99.99
2019-03-23T04:48:36.381Z,99.99
2019-03-23T04:49:36.358Z,99.99
2019-03-23T04:50:36.332Z,99.99
2019-03-23T04:51:36.309Z,99.99
2019-03-23T04:52:36.290Z,99.99
2019-03-23T04:53:36.273Z,99.99
2019-03-23T04:54:36.247Z,99.99
2019-03-23T04:55:36.231Z,99.99
2019-03-23T04:56:36.203Z,99.99
2019-03-23T04:57:36.185Z,99.99
2019-03-23T04:58:36.158Z,99.99
2019-03-23T04:59:36.136Z,99.99
2019-03-23T05:00:36.119Z,99.99
2019-03-23T05:01:36.093Z,99.99
2019-03-23T05:02:36.074Z,99.99
2019-03-23T05:03:36.047Z,99.99
2019-03-23T05:04:36.029Z,99.99
2019-03-23T05:05:36.003Z,99.99
2019-03-23T05:06:35.983Z,99.99
2019-03-23T05:07:35.972Z,99.99
2019-03-23T05:08:35.943Z,99.99
2019-03-23T05:09:35.916Z,99.99
2019-03-23T05:10:35.901Z,99.99
2019-03-23T05:11:35.873Z,99.99
2019-03-23T05:12:35.849Z,99.99
2019-03-23T05:13:35.828Z,99.99
2019-03-23T05:14:35.810Z,99.99
2019-03-23T05:15:35.787Z,99.99
2019-03-23T05:16:35.768Z,99.99
2019-03-23T05:17:35.742Z,99.99
2019-03-23T05:18:35.723Z,99.99
2019-03-23T05:19:35.700Z,99.99
2019-03-23T05:20:35.674Z,99.99
2019-03-23T05:21:35.652Z,99.99
2019-03-23T05:22:35.644Z,99.99
2019-03-23T05:23:35.608Z,99.99
2019-03-23T05:24:35.588Z,99.99
2019-03-23T05:25:35.566Z,99.99
2019-03-23T05:26:35.548Z,99.99
2019-03-23T05:27:35.523Z,99.99
2019-03-23T05:28:35.504Z,99.99
2019-03-23T05:29:35.476Z,99.99
2019-03-23T05:30:35.459Z,99.99
2019-03-23T05:31:35.430Z,99.99
2019-03-23T05:32:35.411Z,99.99
2019-03-23T05:33:35.392Z,99.99
2019-03-23T05:34:35.366Z,99.99
2019-03-23T05:35:35.344Z,99.99
2019-03-23T05:36:35.320Z,99.99
2019-03-23T05:37:35.304Z,99.99
2019-03-23T05:38:43.953Z,99.99
2019-03-23T05:39:35.258Z,99.99
2019-03-23T05:40:35.232Z,99.99
2019-03-23T05:41:35.213Z,99.99
2019-03-23T05:42:35.190Z,99.99
2019-03-23T05:43:35.165Z,99.99
2019-03-23T05:44:35.150Z,99.99
2019-03-23T05:45:35.125Z,99.99
2019-03-23T05:46:35.108Z,99.99
2019-03-23T05:47:35.082Z,99.99
2019-03-23T05:48:35.059Z,99.99
2019-03-23T05:49:35.034Z,99.99
2019-03-23T05:50:35.042Z,99.99
2019-03-23T05:51:34.994Z,99.99
2019-03-23T05:52:34.979Z,99.99
2019-03-23T05:53:34.955Z,99.99
2019-03-23T05:54:34.928Z,99.99
2019-03-23T05:55:34.914Z,99.99
2019-03-23T05:56:34.885Z,99.99
2019-03-23T05:57:34.870Z,99.99
2019-03-23T05:58:34.846Z,99.99
2019-03-23T05:59:34.816Z,99.99
2019-03-23T06:00:34.793Z,99.99
2019-03-23T06:01:34.782Z,99.99
2019-03-23T06:02:34.751Z,99.99
2019-03-23T06:03:34.727Z,99.99
2019-03-23T06:04:34.708Z,99.99
2019-03-23T06:05:34.685Z,99.99
2019-03-23T06:06:34.660Z,99.99
2019-03-23T06:07:34.645Z,99.99
2019-03-23T06:08:34.620Z,99.99
2019-03-23T06:09:34.593Z,99.99
2019-03-23T06:10:34.572Z,99.99
2019-03-23T06:11:34.559Z,99.99
2019-03-23T06:12:34.531Z,99.99
2019-03-23T06:13:34.508Z,99.99
2019-03-23T06:14:34.495Z,99.99
2019-03-23T06:15:34.464Z,99.99
2019-03-23T06:16:34.443Z,99.99
2019-03-23T06:17:34.428Z,99.99
2019-03-23T06:18:34.399Z,99.99
2019-03-23T06:19:34.378Z,99.99
2019-03-23T06:20:34.353Z,99.99
2019-03-23T06:21:34.337Z,99.99
2019-03-23T06:22:34.309Z,99.99
2019-03-23T06:23:34.290Z,99.99
2019-03-23T06:24:34.267Z,99.99
2019-03-23T06:25:34.252Z,99.99
2019-03-23T06:26:34.223Z,99.99
2019-03-23T06:27:34.205Z,99.99
2019-03-23T06:28:34.183Z,99.99
2019-03-23T06:29:34.165Z,99.99
2019-03-23T06:30:34.141Z,99.99
2019-03-23T06:31:34.115Z,99.99
2019-03-23T06:32:34.101Z,99.99
2019-03-23T06:33:34.073Z,99.99
2019-03-23T06:34:34.056Z,99.99
2019-03-23T06:35:34.031Z,99.99
2019-03-23T06:36:34.004Z,99.99
2019-03-23T06:37:33.985Z,99.99
2019-03-23T06:38:33.963Z,99.99
2019-03-23T06:39:33.942Z,99.99
2019-03-23T06:40:33.921Z,99.99
2019-03-23T06:41:33.905Z,99.99
2019-03-23T06:42:33.878Z,99.99
2019-03-23T06:43:33.862Z,99.99
2019-03-23T06:44:33.833Z,99.99
2019-03-23T06:45:33.814Z,99.99
2019-03-23T06:46:33.789Z,99.99
2019-03-23T06:47:33.770Z,99.99
2019-03-23T06:48:33.745Z,99.99
2019-03-23T06:49:33.728Z,99.99
2019-03-23T06:50:33.709Z,99.99
2019-03-23T06:51:33.687Z,99.99
2019-03-23T06:52:33.661Z,99.99
2019-03-23T06:53:33.642Z,99.99
2019-03-23T06:54:33.615Z,99.99
2019-03-23T06:55:33.600Z,99.99
2019-03-23T06:56:33.579Z,99.99
2019-03-23T06:57:33.556Z,99.99
2019-03-23T06:58:33.536Z,99.99
2019-03-23T06:59:33.512Z,99.99
2019-03-23T07:00:33.490Z,99.99
2019-03-23T07:01:33.474Z,99.99
2019-03-23T07:02:33.449Z,99.99
2019-03-23T07:03:33.425Z,99.99
2019-03-23T07:04:33.414Z,99.99
2019-03-23T07:05:33.390Z,99.99
2019-03-23T07:06:33.372Z,99.99
2019-03-23T07:07:33.344Z,99.99
2019-03-23T07:08:33.324Z,99.99
2019-03-23T07:09:33.306Z,99.99
2019-03-23T07:10:33.278Z,99.99
2019-03-23T07:11:33.264Z,99.99
2019-03-23T07:12:33.241Z,99.99
2019-03-23T07:13:33.219Z,99.99
2019-03-23T07:14:33.202Z,99.99
2019-03-23T07:15:33.184Z,99.99
2019-03-23T07:16:33.157Z,99.99
2019-03-23T07:17:33.139Z,99.99
2019-03-23T07:18:33.116Z,99.99
2019-03-23T07:19:33.094Z,99.99
2019-03-23T07:20:33.078Z,99.99
2019-03-23T07:21:33.057Z,99.99
2019-03-23T07:22:33.039Z,99.99
2019-03-23T07:23:33.023Z,99.99
2019-03-23T07:24:32.994Z,99.99
2019-03-23T07:25:32.977Z,99.99
2019-03-23T07:26:32.954Z,99.99
2019-03-23T07:27:32.941Z,99.99
2019-03-23T07:28:32.923Z,99.99
2019-03-23T07:29:32.901Z,99.99
2019-03-23T07:30:32.883Z,99.99
2019-03-23T07:31:32.907Z,99.99
2019-03-23T07:32:32.841Z,99.99
2019-03-23T07:33:32.819Z,99.99
2019-03-23T07:34:32.796Z,99.99
2019-03-23T07:35:32.779Z,99.99
2019-03-23T07:36:32.762Z,99.99
2019-03-23T07:37:32.744Z,99.99
2019-03-23T07:38:32.720Z,99.99
2019-03-23T07:39:32.707Z,99.48
2019-03-23T07:40:32.689Z,97.33
2019-03-23T07:41:32.671Z,95.89
2019-03-23T07:42:32.652Z,95.07
2019-03-23T07:43:32.636Z,93.07
2019-03-23T07:44:32.618Z,91.58
2019-03-23T07:45:32.600Z,89.71
2019-03-23T07:46:32.582Z,89.42
2019-03-23T07:47:32.563Z,87.93
2019-03-23T07:48:32.549Z,85.63
2019-03-23T07:49:32.537Z,86.15
2019-03-23T07:50:32.519Z,85.67
2019-03-23T07:51:32.504Z,84.56
2019-03-23T07:52:32.488Z,82.93
2019-03-23T07:53:32.475Z,83.03
2019-03-23T07:54:32.459Z,81.92
2019-03-23T07:55:32.441Z,79.94
2019-03-23T07:56:32.433Z,79.02
2019-03-23T07:57:32.414Z,78.58
2019-03-23T07:58:32.399Z,77.17
2019-03-23T07:59:32.384Z,74.86
2019-03-23T08:00:32.371Z,73.99
2019-03-23T08:01:32.356Z,74.13
2019-03-23T08:02:32.347Z,74.03
2019-03-23T08:03:32.334Z,73.07
2019-03-23T08:04:32.321Z,73.20
2019-03-23T08:05:32.318Z,72.27
2019-03-23T08:06:32.297Z,70.67
2019-03-23T08:07:32.282Z,70.38
2019-03-23T08:08:32.273Z,70.00
2019-03-23T08:09:37.679Z,69.61
2019-03-23T08:10:32.246Z,70.06
2019-03-23T08:11:32.237Z,70.86
2019-03-23T08:12:32.228Z,70.57
2019-03-23T08:13:32.340Z,70.13
2019-03-23T08:14:32.206Z,68.49
2019-03-23T08:15:32.192Z,68.39
2019-03-23T08:16:32.182Z,68.71
2019-03-23T08:17:32.174Z,68.17
2019-03-23T08:18:32.167Z,66.63
2019-03-23T08:19:32.150Z,66.66
2019-03-23T08:20:32.144Z,66.56
2019-03-23T08:21:32.136Z,65.14
2019-03-23T08:22:32.125Z,64.31
2019-03-23T08:23:32.111Z,64.01
2019-03-23T08:24:32.111Z,62.98
2019-03-23T08:25:32.093Z,63.27
2019-03-23T08:26:32.081Z,62.53
2019-03-23T08:27:32.080Z,61.27
2019-03-23T08:28:32.517Z,60.82
2019-03-23T08:29:32.055Z,61.21
2019-03-23T08:30:32.049Z,60.82
2019-03-23T08:31:32.035Z,60.55
2019-03-23T08:32:32.029Z,60.10
2019-03-23T08:33:32.020Z,59.13
2019-03-23T08:34:32.010Z,58.45
2019-03-23T08:35:32.003Z,59.03
2019-03-23T08:36:32.000Z,58.74
2019-03-23T08:37:31.986Z,58.19
2019-03-23T08:38:31.980Z,57.83
2019-03-23T08:39:31.973Z,57.44
2019-03-23T08:40:31.970Z,57.44
2019-03-23T08:41:31.953Z,57.22
2019-03-23T08:42:31.952Z,57.70
2019-03-23T08:43:31.949Z,56.23
2019-03-23T08:44:31.935Z,56.25
2019-03-23T08:45:31.927Z,56.10
2019-03-23T08:46:31.916Z,57.36
2019-03-23T08:47:31.918Z,59.33
2019-03-23T08:48:31.917Z,58.26
2019-03-23T08:49:31.901Z,57.70
2019-03-23T08:50:31.893Z,57.73
2019-03-23T08:51:31.887Z,57.37
2019-03-23T08:52:31.876Z,56.60
2019-03-23T08:53:31.874Z,55.46
2019-03-23T08:54:31.868Z,55.39
2019-03-23T08:55:31.859Z,54.90
2019-03-23T08:56:31.851Z,53.93
2019-03-23T08:57:31.846Z,54.29
2019-03-23T08:58:31.837Z,55.27
2019-03-23T08:59:31.833Z,55.58
2019-03-23T09:00:31.827Z,53.28
2019-03-23T09:01:31.821Z,53.25
2019-03-23T09:02:31.813Z,53.47
2019-03-23T09:03:31.804Z,53.28
2019-03-23T09:04:31.800Z,53.11
2019-03-23T09:05:31.794Z,52.33
2019-03-23T09:06:31.791Z,51.75
2019-03-23T09:07:31.783Z,52.21
2019-03-23T09:08:31.778Z,52.21
2019-03-23T09:09:31.773Z,53.38
2019-03-23T09:10:31.774Z,53.28
2019-03-23T09:11:31.761Z,52.79
2019-03-23T09:12:31.761Z,51.62
2019-03-23T09:13:40.183Z,52.92
2019-03-23T09:14:31.745Z,52.26
2019-03-23T09:15:31.739Z,52.28
2019-03-23T09:16:31.734Z,50.78
2019-03-23T09:17:31.734Z,50.29
2019-03-23T09:18:31.726Z,48.95
2019-03-23T09:19:31.726Z,48.54
2019-03-23T09:20:31.715Z,48.95
2019-03-23T09:21:31.719Z,47.97
2019-03-23T09:22:31.705Z,49.68
2019-03-23T09:23:31.709Z,50.56
2019-03-23T09:24:31.700Z,50.29
2019-03-23T09:25:31.699Z,48.93
2019-03-23T09:26:31.691Z,49.39
2019-03-23T09:27:31.682Z,49.85
2019-03-23T09:28:31.678Z,48.90
2019-03-23T09:29:31.678Z,48.90
2019-03-23T09:30:31.670Z,49.66
2019-03-23T09:31:31.668Z,50.26
2019-03-23T09:32:31.661Z,49.19
2019-03-23T09:33:31.658Z,48.80
2019-03-23T09:34:31.651Z,49.12
2019-03-23T09:35:31.646Z,48.85
2019-03-23T09:36:31.647Z,47.51
2019-03-23T09:37:31.641Z,47.41
2019-03-23T09:38:31.638Z,47.39
2019-03-23T09:39:31.635Z,48.44
2019-03-23T09:40:31.632Z,48.24
2019-03-23T09:41:31.628Z,48.95
2019-03-23T09:42:31.621Z,48.14
2019-03-23T09:43:31.621Z,48.34
2019-03-23T09:44:31.625Z,47.75
2019-03-23T09:45:31.620Z,48.63
2019-03-23T09:46:31.607Z,49.93
2019-03-23T09:47:31.606Z,48.85
2019-03-23T09:48:31.604Z,48.10
2019-03-23T09:49:31.601Z,47.34
2019-03-23T09:50:31.594Z,47.36
2019-03-23T09:51:33.009Z,44.73
2019-03-23T09:52:31.590Z,44.82
2019-03-23T09:53:31.588Z,46.97
2019-03-23T09:54:31.596Z,46.48
2019-03-23T09:55:31.580Z,45.56
2019-03-23T09:56:31.578Z,46.75
2019-03-23T09:57:31.576Z,47.53
2019-03-23T09:58:31.577Z,46.75
2019-03-23T09:59:31.574Z,46.88
2019-03-23T10:00:31.567Z,47.09
2019-03-23T10:01:31.565Z,45.55
2019-03-23T10:02:31.559Z,44.57
2019-03-23T10:03:31.560Z,45.36
2019-03-23T10:04:31.562Z,44.49
2019-03-23T10:05:31.560Z,43.42
2019-03-23T10:06:31.554Z,43.01
2019-03-23T10:07:31.550Z,45.36
2019-03-23T10:08:31.546Z,45.65
2019-03-23T10:09:31.551Z,44.18
2019-03-23T10:10:31.541Z,43.79
2019-03-23T10:11:31.538Z,44.57
2019-03-23T10:12:31.550Z,44.28
2019-03-23T10:13:31.536Z,44.26
2019-03-23T10:14:31.537Z,44.73
2019-03-23T10:15:31.533Z,45.33
2019-03-23T10:16:31.540Z,45.43
2019-03-23T10:17:31.543Z,44.16
2019-03-23T10:18:31.526Z,43.69
2019-03-23T10:19:31.522Z,43.49
2019-03-23T10:20:31.526Z,44.09
2019-03-23T10:21:31.522Z,44.20
2019-03-23T10:22:31.531Z,43.49
2019-03-23T10:23:31.519Z,43.89
2019-03-23T10:24:31.513Z,44.67
2019-03-23T10:25:31.511Z,43.79
2019-03-23T10:26:31.512Z,43.01
2019-03-23T10:27:31.511Z,43.30
2019-03-23T10:28:31.512Z,44.24
2019-03-23T10:29:31.507Z,44.43
2019-03-23T10:30:31.505Z,44.84
2019-03-23T10:31:31.502Z,43.95
2019-03-23T10:32:31.508Z,45.51
2019-03-23T10:33:31.499Z,45.00
2019-03-23T10:34:31.495Z,45.51
2019-03-23T10:35:31.493Z,44.82
2019-03-23T10:36:31.493Z,44.18
2019-03-23T10:37:31.494Z,45.08
2019-03-23T10:38:31.492Z,44.23
2019-03-23T10:39:31.491Z,42.38
2019-03-23T10:40:32.738Z,41.70
2019-03-23T10:41:31.484Z,41.96
2019-03-23T10:42:31.481Z,43.01
2019-03-23T10:43:31.484Z,43.67
2019-03-23T10:44:31.486Z,43.26
2019-03-23T10:45:31.479Z,43.73
2019-03-23T10:46:31.474Z,44.07
2019-03-23T10:47:31.555Z,46.51
2019-03-23T10:48:31.472Z,46.00
2019-03-23T10:49:31.466Z,46.39
2019-03-23T10:50:31.465Z,48.66
2019-03-23T10:51:31.461Z,47.34
2019-03-23T10:52:31.460Z,45.36
2019-03-23T10:53:31.464Z,44.68
2019-03-23T10:54:31.460Z,45.75
2019-03-23T10:55:31.460Z,44.12
2019-03-23T10:56:31.455Z,44.21
2019-03-23T10:57:31.452Z,44.19
2019-03-23T10:58:31.454Z,43.99
2019-03-23T10:59:31.451Z,43.71
2019-03-23T11:00:31.449Z,43.88
2019-03-23T11:01:31.448Z,44.85
2019-03-23T11:02:31.448Z,44.95
2019-03-23T11:03:31.448Z,45.54
2019-03-23T11:04:31.444Z,44.97
2019-03-23T11:05:31.444Z,44.51
2019-03-23T11:06:31.438Z,44.51
2019-03-23T11:07:31.437Z,44.24
2019-03-23T11:08:31.442Z,44.16
2019-03-23T11:09:31.433Z,41.82
2019-03-23T11:10:31.437Z,42.42
2019-03-23T11:11:31.431Z,42.42
2019-03-23T11:12:31.431Z,42.01
2019-03-23T11:13:31.431Z,43.10
2019-03-23T11:14:31.426Z,42.15
2019-03-23T11:15:31.427Z,41.86
2019-03-23T11:16:31.434Z,41.74
2019-03-23T11:17:31.422Z,41.52
2019-03-23T11:18:31.424Z,43.28
2019-03-23T11:19:31.417Z,42.91
2019-03-23T11:20:31.424Z,42.91
2019-03-23T11:21:31.415Z,42.81
2019-03-23T11:22:31.421Z,41.96
2019-03-23T11:23:31.414Z,42.15
2019-03-23T11:24:31.413Z,41.66
2019-03-23T11:25:31.413Z,40.94
2019-03-23T11:26:31.409Z,41.89
2019-03-23T11:27:31.409Z,42.48
2019-03-23T11:28:31.434Z,43.36
2019-03-23T11:29:31.409Z,44.16
2019-03-23T11:30:31.416Z,42.22
2019-03-23T11:31:31.409Z,42.79
2019-03-23T11:32:31.409Z,42.38
2019-03-23T11:33:31.407Z,45.51
2019-03-23T11:34:31.400Z,43.95
2019-03-23T11:35:31.404Z,43.55
2019-03-23T11:36:31.403Z,45.23
2019-03-23T11:37:31.619Z,42.69
2019-03-23T11:38:31.397Z,42.87
2019-03-23T11:39:31.395Z,42.99
2019-03-23T11:40:31.402Z,43.38
2019-03-23T11:41:31.390Z,42.71
2019-03-23T11:42:31.391Z,41.74
2019-03-23T11:43:31.389Z,44.01
2019-03-23T11:44:31.389Z,42.83
2019-03-23T11:45:31.387Z,41.86
2019-03-23T11:46:31.385Z,41.68
2019-03-23T11:47:31.386Z,40.90
2019-03-23T11:48:31.383Z,41.88
2019-03-23T11:49:31.387Z,42.36
2019-03-23T11:50:31.428Z,42.95
2019-03-23T11:51:31.377Z,41.76
2019-03-23T11:52:31.380Z,42.93
2019-03-23T11:53:31.382Z,44.23
2019-03-23T11:54:31.374Z,43.29
2019-03-23T11:55:31.375Z,42.78
2019-03-23T11:56:31.373Z,42.64
2019-03-23T11:57:31.373Z,43.69
2019-03-23T11:58:31.376Z,43.79
2019-03-23T11:59:31.369Z,44.26
2019-03-23T12:00:31.369Z,45.55
2019-03-23T12:01:31.368Z,44.67
2019-03-23T12:02:31.373Z,44.96
2019-03-23T12:03:31.366Z,44.20
2019-03-23T12:04:31.369Z,43.32
2019-03-23T12:05:31.397Z,42.81
2019-03-23T12:06:31.368Z,42.89
2019-03-23T12:07:31.364Z,44.14
2019-03-23T12:08:31.361Z,45.87
2019-03-23T12:09:31.358Z,43.92
2019-03-23T12:10:31.359Z,45.07
2019-03-23T12:11:31.364Z,45.25
2019-03-23T12:12:31.356Z,46.30
2019-03-23T12:13:31.357Z,46.34
2019-03-23T12:14:31.355Z,45.07
2019-03-23T12:15:31.358Z,45.00
2019-03-23T12:16:31.352Z,43.43
2019-03-23T12:17:31.351Z,44.04
2019-03-23T12:18:31.348Z,44.55
2019-03-23T12:19:31.345Z,44.26
2019-03-23T12:20:31.347Z,43.57
2019-03-23T12:21:31.345Z,44.26
2019-03-23T12:22:31.354Z,44.06
2019-03-23T12:23:31.345Z,43.89
2019-03-23T12:24:31.337Z,44.30
2019-03-23T12:25:31.338Z,43.40
2019-03-23T12:26:31.340Z,43.69
2019-03-23T12:27:31.336Z,43.28
2019-03-23T12:28:31.339Z,44.14
2019-03-23T12:29:31.344Z,44.90
2019-03-23T12:30:31.335Z,45.29
2019-03-23T12:31:31.331Z,44.60
2019-03-23T12:32:31.333Z,46.39
2019-03-23T12:33:31.333Z,45.51
2019-03-23T12:34:31.326Z,45.61
2019-03-23T12:35:31.328Z,46.46
2019-03-23T12:36:31.326Z,45.97
2019-03-23T12:37:31.330Z,48.58
2019-03-23T12:38:31.326Z,47.78
2019-03-23T12:39:31.322Z,46.90
2019-03-23T12:40:31.321Z,47.27
2019-03-23T12:41:31.325Z,48.05
2019-03-23T12:42:31.317Z,48.71
2019-03-23T12:43:31.326Z,49.56
2019-03-23T12:44:31.317Z,49.68
2019-03-23T12:45:31.320Z,48.49
2019-03-23T12:46:31.309Z,49.56
2019-03-23T12:47:31.313Z,48.58
2019-03-23T12:48:31.306Z,48.66
2019-03-23T12:49:31.312Z,49.32
2019-03-23T12:50:31.303Z,49.97
2019-03-23T12:51:31.313Z,50.75
2019-03-23T12:52:31.305Z,50.85